Time;durP1;ratioP1;P1;durP2;ratioP2;P2;SDS_P1;SDS_P2;PMS_P1;PMS_P2;Temp;Humidity;BMP_temperature;BMP_pressure;BME280_temperature;BME280_humidity;BME280_pressure;Samples;Min_cycle;Max_cycle;Signal;HPM_P1;HPM_P2
2023/10/22 00:01:02;;;;;;;5.00;1.40;;;13.00;99.90;;;;;;5003766;28;20050;-78
2023/10/22 00:03:28;;;;;;;3.70;1.20;;;13.10;99.90;;;;;;4996388;28;20072;-78
2023/10/22 00:05:54;;;;;;;9.75;1.85;;;13.10;99.90;;;;;;4999189;28;20034;-78
2023/10/22 00:08:19;;;;;;;6.15;1.52;;;13.10;99.90;;;;;;5012538;28;20567;-77
2023/10/22 00:10:45;;;;;;;5.13;1.48;;;13.10;99.90;;;;;;5004150;28;20046;-78
2023/10/22 00:13:11;;;;;;;5.68;1.40;;;13.10;99.90;;;;;;4996115;28;20064;-78
2023/10/22 00:15:36;;;;;;;7.03;1.40;;;13.10;99.90;;;;;;5004420;28;20053;-78
2023/10/22 00:18:02;;;;;;;5.22;1.42;;;13.10;99.90;;;;;;4997297;28;20041;-78
2023/10/22 00:20:30;;;;;;;7.40;1.60;;;13.10;99.90;;;;;;5003750;28;20053;-78
2023/10/22 00:22:56;;;;;;;3.95;1.50;;;13.20;99.90;;;;;;5019179;28;20125;-78
2023/10/22 00:25:21;;;;;;;5.57;1.48;;;13.20;99.90;;;;;;5003168;28;20113;-78
2023/10/22 00:27:47;;;;;;;5.00;1.55;;;13.20;99.90;;;;;;4992390;28;20428;-78
2023/10/22 00:30:12;;;;;;;5.10;1.30;;;13.20;99.90;;;;;;5009216;28;20121;-77
2023/10/22 00:32:38;;;;;;;4.07;1.40;;;13.30;99.90;;;;;;5004398;28;20520;-78
2023/10/22 00:35:04;;;;;;;6.15;1.23;;;13.30;99.90;;;;;;5001649;28;20050;-78
2023/10/22 00:37:29;;;;;;;7.10;1.60;;;13.30;99.90;;;;;;4991501;28;20069;-78
2023/10/22 00:39:55;;;;;;;3.92;1.27;;;13.30;99.90;;;;;;5010810;28;20117;-78
2023/10/22 00:42:21;;;;;;;5.07;1.80;;;13.30;99.90;;;;;;5002278;28;20042;-78
2023/10/22 00:44:46;;;;;;;7.72;1.80;;;13.40;99.90;;;;;;4993553;28;20580;-77
2023/10/22 00:47:15;;;;;;;3.08;1.20;;;13.40;99.90;;;;;;4988290;28;20420;-78
2023/10/22 00:49:42;;;;;;;6.05;1.40;;;13.40;99.90;;;;;;4998762;28;20104;-78
2023/10/22 00:52:08;;;;;;;3.33;1.20;;;13.40;99.90;;;;;;5001635;28;20061;-78
2023/10/22 00:54:34;;;;;;;8.73;1.35;;;13.40;99.90;;;;;;4998409;28;20500;-78
2023/10/22 00:57:02;;;;;;;5.00;1.35;;;13.50;99.90;;;;;;4993013;28;20107;-77
2023/10/22 00:59:28;;;;;;;;;;;13.50;99.90;;;;;;5000672;28;20083;-78
2023/10/22 01:01:53;;;;;;;5.45;1.42;;;13.50;99.90;;;;;;5004330;28;19922;-78
2023/10/22 01:04:19;;;;;;;6.22;1.38;;;13.50;99.90;;;;;;4997173;28;20046;-78
2023/10/22 01:06:45;;;;;;;7.15;1.33;;;13.50;99.90;;;;;;4993953;28;20074;-78
2023/10/22 01:09:11;;;;;;;5.57;1.30;;;13.50;99.90;;;;;;5002075;28;20050;-78
2023/10/22 01:11:56;;;;;;;4.32;1.50;;;13.50;99.90;;;;;;4995695;28;20042;-78
2023/10/22 01:14:22;;;;;;;3.75;1.20;;;13.50;99.90;;;;;;5006482;28;20169;-78
2023/10/22 01:16:47;;;;;;;5.50;1.60;;;13.50;99.90;;;;;;4994765;28;20537;-78
2023/10/22 01:19:13;;;;;;;6.53;1.30;;;13.50;99.90;;;;;;4990838;28;20144;-78
2023/10/22 01:21:38;;;;;;;4.05;1.60;;;13.50;99.90;;;;;;4996988;28;20141;-78
2023/10/22 01:24:04;;;;;;;7.78;1.50;;;13.50;99.90;;;;;;5005772;28;20061;-78
2023/10/22 01:26:30;;;;;;;4.50;1.10;;;13.50;99.90;;;;;;5006573;28;20041;-78
2023/10/22 01:28:56;;;;;;;5.25;1.50;;;13.50;99.90;;;;;;4995958;28;20126;-78
2023/10/22 01:31:21;;;;;;;7.72;1.48;;;13.40;99.90;;;;;;5006054;28;20475;-78
2023/10/22 01:33:47;;;;;;;4.63;1.25;;;13.40;99.90;;;;;;4995831;28;20519;-78
2023/10/22 01:36:13;;;;;;;5.95;1.20;;;13.30;99.90;;;;;;5008992;28;20042;-78
2023/10/22 01:38:38;;;;;;;4.25;1.10;;;13.30;99.90;;;;;;5001398;28;20077;-78
2023/10/22 01:41:08;;;;;;;5.80;1.40;;;13.20;99.90;;;;;;5023455;28;20805;-78
2023/10/22 01:43:34;;;;;;;5.20;1.27;;;13.20;99.90;;;;;;5012212;28;20542;-78
2023/10/22 01:46:00;;;;;;;4.38;1.35;;;13.10;99.90;;;;;;4998564;28;20053;-78
2023/10/22 01:48:25;;;;;;;5.22;1.30;;;13.10;99.90;;;;;;5003467;28;20092;-78
2023/10/22 01:50:51;;;;;;;2.72;1.10;;;13.10;99.90;;;;;;4993924;28;20045;-78
2023/10/22 01:53:17;;;;;;;4.35;1.13;;;13.00;99.90;;;;;;5004050;28;20123;-78
2023/10/22 01:55:42;;;;;;;6.30;1.10;;;13.00;99.90;;;;;;5002239;28;20084;-78
2023/10/22 01:58:08;;;;;;;7.35;1.50;;;13.00;99.90;;;;;;4998342;28;20073;-78
2023/10/22 02:00:33;;;;;;;5.28;1.40;;;13.00;99.90;;;;;;4990330;28;20046;-78
2023/10/22 02:02:59;;;;;;;5.47;1.10;;;13.00;99.90;;;;;;5000815;28;20053;-78
2023/10/22 02:05:25;;;;;;;5.93;1.40;;;13.00;99.90;;;;;;5006885;28;20056;-78
2023/10/22 02:07:51;;;;;;;5.45;1.20;;;12.90;99.90;;;;;;4996757;28;20042;-78
2023/10/22 02:10:17;;;;;;;5.13;1.30;;;13.00;99.90;;;;;;5013784;28;20046;-78
2023/10/22 02:12:43;;;;;;;6.60;1.33;;;13.00;99.90;;;;;;4997033;28;20091;-78
2023/10/22 02:15:09;;;;;;;5.03;1.30;;;13.00;99.90;;;;;;4998400;28;20483;-78
2023/10/22 02:17:35;;;;;;;6.30;1.23;;;13.00;99.90;;;;;;5009127;28;20034;-78
2023/10/22 02:20:01;;;;;;;5.72;1.50;;;13.00;99.90;;;;;;5002154;28;20560;-78
2023/10/22 02:22:27;;;;;;;4.53;1.10;;;13.00;99.90;;;;;;4997661;28;20140;-78
2023/10/22 02:24:54;;;;;;;5.65;1.55;;;13.00;99.90;;;;;;5001378;28;20045;-78
2023/10/22 02:27:19;;;;;;;4.95;1.30;;;13.00;99.90;;;;;;4996465;28;20039;-78
2023/10/22 02:29:45;;;;;;;4.88;1.10;;;13.00;99.90;;;;;;5001374;28;20048;-78
2023/10/22 02:32:11;;;;;;;4.60;1.23;;;13.00;99.90;;;;;;5008314;28;20046;-78
2023/10/22 02:34:36;;;;;;;3.83;1.33;;;13.00;99.90;;;;;;5006143;28;20052;-78
2023/10/22 02:37:02;;;;;;;6.03;1.17;;;13.00;99.90;;;;;;5006926;28;20129;-78
2023/10/22 02:39:28;;;;;;;5.10;1.17;;;13.00;99.90;;;;;;4988684;28;20042;-78
2023/10/22 02:41:53;;;;;;;6.00;1.23;;;13.00;99.90;;;;;;5014377;28;20042;-78
2023/10/22 02:44:20;;;;;;;3.30;1.15;;;13.00;99.90;;;;;;5000067;28;20053;-78
2023/10/22 02:46:46;;;;;;;6.60;1.50;;;13.00;99.90;;;;;;5002467;28;20061;-78
2023/10/22 02:49:12;;;;;;;4.53;1.40;;;13.10;99.90;;;;;;4996998;28;20154;-78
2023/10/22 02:51:38;;;;;;;5.03;1.15;;;13.00;99.90;;;;;;5002959;28;20053;-78
2023/10/22 02:54:04;;;;;;;5.07;1.50;;;13.10;99.90;;;;;;5010789;28;20041;-78
2023/10/22 02:56:29;;;;;;;5.10;1.38;;;13.10;99.90;;;;;;5007408;28;20045;-78
2023/10/22 02:58:55;;;;;;;4.95;1.30;;;13.10;99.90;;;;;;5108694;27;20045;-77
2023/10/22 03:01:21;;;;;;;2.80;1.20;;;13.10;99.90;;;;;;5004256;28;20527;-78
2023/10/22 03:03:46;;;;;;;4.95;1.35;;;13.10;99.90;;;;;;5100464;27;20113;-78
2023/10/22 03:06:12;;;;;;;5.28;1.30;;;13.10;99.90;;;;;;4997826;28;20046;-78
2023/10/22 03:08:41;;;;;;;4.82;1.10;;;13.10;99.90;;;;;;5084471;28;20516;-78
2023/10/22 03:11:16;;;;;;;4.32;1.10;;;13.10;99.90;;;;;;4998721;28;21541;-78
2023/10/22 03:13:41;;;;;;;4.55;1.30;;;13.10;99.90;;;;;;5097080;27;20050;-78
2023/10/22 03:16:11;;;;;;;2.97;1.00;;;13.10;99.90;;;;;;4995009;28;20046;-78
2023/10/22 03:18:38;;;;;;;4.32;1.30;;;13.10;99.90;;;;;;4997312;28;20050;-78
2023/10/22 03:21:14;;;;;;;3.28;0.93;;;13.10;99.90;;;;;;5002849;28;20136;-78
2023/10/22 03:23:44;;;;;;;4.97;1.10;;;13.10;99.90;;;;;;4994158;28;20051;-77
2023/10/22 03:26:13;;;;;;;3.95;1.10;;;13.10;99.90;;;;;;4997258;28;20081;-78
2023/10/22 03:28:39;;;;;;;3.45;1.00;;;13.10;99.90;;;;;;4986863;28;20157;-78
2023/10/22 03:31:05;;;;;;;2.50;1.08;;;13.10;99.90;;;;;;4997548;28;20094;-77
2023/10/22 03:33:33;;;;;;;3.20;1.10;;;13.10;99.90;;;;;;5012051;28;20499;-78
2023/10/22 03:35:59;;;;;;;2.40;1.10;;;13.10;99.90;;;;;;5000460;28;20380;-78
2023/10/22 03:38:26;;;;;;;4.60;1.05;;;13.10;99.90;;;;;;4993849;28;20099;-78
2023/10/22 03:41:05;;;;;;;5.65;1.20;;;13.10;99.90;;;;;;5006498;28;20056;-78
2023/10/22 03:43:31;;;;;;;2.15;0.98;;;13.00;99.90;;;;;;5003644;28;20077;-78
2023/10/22 03:45:58;;;;;;;3.97;1.15;;;13.00;99.90;;;;;;4993350;28;20061;-78
2023/10/22 03:48:28;;;;;;;3.03;0.98;;;13.00;99.90;;;;;;5003866;28;20050;-78
2023/10/22 03:50:54;;;;;;;2.88;1.00;;;13.00;99.90;;;;;;4991674;28;20050;-78
2023/10/22 03:53:21;;;;;;;3.63;1.23;;;12.90;99.90;;;;;;4991550;28;20046;-78
2023/10/22 03:55:47;;;;;;;3.97;1.10;;;12.90;99.90;;;;;;4997838;28;20501;-78
2023/10/22 03:58:13;;;;;;;4.88;1.27;;;12.90;99.90;;;;;;5005934;28;20050;-78
2023/10/22 04:00:39;;;;;;;6.18;1.15;;;12.80;99.90;;;;;;5006945;28;20514;-78
2023/10/22 04:03:05;;;;;;;4.18;1.10;;;12.80;99.90;;;;;;5005612;28;20062;-78
2023/10/22 04:05:31;;;;;;;5.05;1.40;;;12.80;99.90;;;;;;4991135;28;20070;-78
2023/10/22 04:07:57;;;;;;;5.47;1.20;;;12.70;99.90;;;;;;5009363;28;21930;-79
2023/10/22 04:10:23;;;;;;;5.07;1.50;;;12.70;99.90;;;;;;4995836;28;20052;-78
2023/10/22 04:12:48;;;;;;;4.05;1.20;;;12.70;99.90;;;;;;4993794;28;20392;-78
2023/10/22 04:15:14;;;;;;;2.92;1.00;;;12.70;99.90;;;;;;5011580;28;20582;-78
2023/10/22 04:17:40;;;;;;;4.65;1.15;;;12.70;99.90;;;;;;5005209;28;20096;-78
2023/10/22 04:20:06;;;;;;;3.80;1.30;;;12.70;99.90;;;;;;5012360;28;20129;-78
2023/10/22 04:22:32;;;;;;;4.30;1.17;;;12.70;99.90;;;;;;5005019;28;20087;-78
2023/10/22 04:24:58;;;;;;;5.63;1.10;;;12.70;99.90;;;;;;5002715;28;20046;-78
2023/10/22 04:27:23;;;;;;;3.20;1.30;;;12.70;99.90;;;;;;5006961;28;20074;-77
2023/10/22 04:29:49;;;;;;;5.03;1.17;;;12.70;99.90;;;;;;5010283;28;20034;-78
2023/10/22 04:32:18;;;;;;;3.67;1.20;;;12.70;99.90;;;;;;5001719;28;20420;-78
2023/10/22 04:34:44;;;;;;;3.30;1.27;;;12.70;99.90;;;;;;5018213;28;20045;-77
2023/10/22 04:37:10;;;;;;;2.28;1.20;;;12.70;99.90;;;;;;4997602;28;20038;-78
2023/10/22 04:39:38;;;;;;;3.20;1.10;;;12.70;99.90;;;;;;5001328;28;20045;-78
2023/10/22 04:42:04;;;;;;;2.63;1.23;;;12.70;99.90;;;;;;4995067;28;20386;-79
2023/10/22 04:44:30;;;;;;;3.88;1.35;;;12.70;99.90;;;;;;5000890;28;20130;-79
2023/10/22 04:46:57;;;;;;;3.33;1.48;;;12.70;99.90;;;;;;4999895;28;20121;-79
2023/10/22 04:49:24;;;;;;;4.82;1.30;;;12.60;99.90;;;;;;4993488;28;20042;-78
2023/10/22 04:51:49;;;;;;;3.13;1.33;;;12.60;99.90;;;;;;5003488;28;20046;-78
2023/10/22 04:54:15;;;;;;;3.45;1.40;;;12.60;99.90;;;;;;4992261;28;20119;-79
2023/10/22 04:56:40;;;;;;;2.58;1.48;;;12.60;99.90;;;;;;4998084;28;20046;-79
2023/10/22 04:59:06;;;;;;;4.28;2.10;;;12.60;99.90;;;;;;4996956;28;20061;-79
2023/10/22 05:01:32;;;;;;;2.75;1.73;;;12.60;99.90;;;;;;4998416;28;20504;-79
2023/10/22 05:03:57;;;;;;;4.78;1.70;;;12.60;99.90;;;;;;5004553;28;20476;-79
2023/10/22 05:06:23;;;;;;;3.80;1.73;;;12.60;99.90;;;;;;5011307;28;20400;-79
2023/10/22 05:08:49;;;;;;;4.95;1.95;;;12.50;99.90;;;;;;5006410;28;20046;-79
2023/10/22 05:11:16;;;;;;;4.93;2.22;;;12.50;99.90;;;;;;5000436;28;20065;-78
2023/10/22 05:13:43;;;;;;;4.70;1.50;;;12.50;99.90;;;;;;5025659;28;20643;-78
2023/10/22 05:16:10;;;;;;;4.63;1.90;;;12.50;99.90;;;;;;5003760;28;20057;-78
2023/10/22 05:18:37;;;;;;;4.30;1.63;;;12.50;99.90;;;;;;4996193;28;20065;-78
2023/10/22 05:21:05;;;;;;;;;;;12.50;99.90;;;;;;4999587;28;20057;-77
2023/10/22 05:23:32;;;;;;;2.55;1.50;;;12.40;99.90;;;;;;4998257;28;19922;-78
2023/10/22 05:26:05;;;;;;;4.60;1.73;;;12.40;99.90;;;;;;4989005;28;20050;-78
2023/10/22 05:28:30;;;;;;;4.72;1.63;;;12.40;99.90;;;;;;4986622;28;20051;-78
2023/10/22 05:30:56;;;;;;;2.45;1.45;;;12.40;99.90;;;;;;4989678;28;20038;-78
2023/10/22 05:33:22;;;;;;;2.83;2.08;;;12.40;99.90;;;;;;5000604;28;20084;-79
2023/10/22 05:35:47;;;;;;;2.95;1.65;;;12.40;99.90;;;;;;4991858;28;20050;-78
2023/10/22 05:38:13;;;;;;;3.20;1.80;;;12.40;99.90;;;;;;5000077;28;20038;-78
2023/10/22 05:40:39;;;;;;;2.92;1.98;;;12.40;99.90;;;;;;5000776;28;20058;-78
2023/10/22 05:43:04;;;;;;;3.67;1.83;;;12.40;99.90;;;;;;4991427;28;20038;-78
2023/10/22 05:45:30;;;;;;;2.47;1.80;;;12.40;99.90;;;;;;4995262;28;20118;-78
2023/10/22 05:47:56;;;;;;;2.65;1.80;;;12.40;99.90;;;;;;4996559;28;20177;-78
2023/10/22 05:50:21;;;;;;;2.45;1.63;;;12.40;99.90;;;;;;4990960;28;20042;-78
2023/10/22 05:52:50;;;;;;;3.42;1.70;;;12.40;99.90;;;;;;4998926;28;20132;-78
2023/10/22 05:55:16;;;;;;;2.75;1.63;;;12.40;99.90;;;;;;5006476;28;20549;-75
2023/10/22 05:57:46;;;;;;;2.47;1.52;;;12.40;99.90;;;;;;4991543;28;20455;-75
2023/10/22 06:00:12;;;;;;;2.50;1.60;;;12.40;99.90;;;;;;4998906;28;20053;-75
2023/10/22 06:02:38;;;;;;;3.47;1.80;;;12.40;99.90;;;;;;5011155;28;20098;-75
2023/10/22 06:05:08;;;;;;;2.15;1.60;;;12.40;99.90;;;;;;4992184;28;20038;-75
2023/10/22 06:07:34;;;;;;;2.25;1.40;;;12.50;99.90;;;;;;4996357;28;20099;-75
2023/10/22 06:10:00;;;;;;;2.00;1.38;;;12.40;99.90;;;;;;5000513;28;20050;-75
2023/10/22 06:12:25;;;;;;;1.83;1.50;;;12.30;99.90;;;;;;5004701;28;20045;-75
2023/10/22 06:14:51;;;;;;;1.70;1.40;;;12.40;99.90;;;;;;5010753;28;20058;-75
2023/10/22 06:17:17;;;;;;;1.65;1.50;;;12.40;99.90;;;;;;4999816;28;20503;-75
2023/10/22 06:19:43;;;;;;;2.45;1.50;;;12.40;99.90;;;;;;4994733;28;20049;-75
2023/10/22 06:22:09;;;;;;;2.90;2.00;;;12.30;99.90;;;;;;5016175;28;20063;-75
2023/10/22 06:24:35;;;;;;;2.58;1.85;;;12.30;99.90;;;;;;5002040;28;20038;-75
2023/10/22 06:27:00;;;;;;;4.25;2.10;;;12.30;99.90;;;;;;4990680;28;20046;-75
2023/10/22 06:29:26;;;;;;;4.30;2.10;;;12.30;99.90;;;;;;4998827;28;20161;-75
2023/10/22 06:31:52;;;;;;;4.43;2.40;;;12.30;99.90;;;;;;4993765;28;20041;-75
2023/10/22 06:34:17;;;;;;;4.20;2.25;;;12.20;99.90;;;;;;5009904;28;20468;-75
2023/10/22 06:36:43;;;;;;;4.22;2.40;;;12.20;99.90;;;;;;4995854;28;20050;-75
2023/10/22 06:39:09;;;;;;;4.10;2.40;;;12.20;99.90;;;;;;5004635;28;20073;-75
2023/10/22 06:41:34;;;;;;;4.50;2.30;;;12.20;99.90;;;;;;4995118;28;20050;-75
2023/10/22 06:44:00;;;;;;;5.30;2.30;;;12.20;99.90;;;;;;4998955;28;20042;-75
2023/10/22 06:46:26;;;;;;;4.07;2.10;;;12.20;99.90;;;;;;4987654;28;20592;-75
2023/10/22 06:48:51;;;;;;;3.55;2.20;;;12.20;99.90;;;;;;4989711;28;20102;-75
2023/10/22 06:51:17;;;;;;;4.07;2.00;;;12.20;99.90;;;;;;5000366;28;20467;-75
2023/10/22 06:53:46;;;;;;;4.30;2.47;;;12.20;99.90;;;;;;5008113;28;20046;-75
2023/10/22 06:56:12;;;;;;;5.25;2.40;;;12.10;99.90;;;;;;5023988;28;20495;-75
2023/10/22 06:58:38;;;;;;;5.35;2.38;;;12.10;99.90;;;;;;5003123;28;20390;-80
2023/10/22 07:01:04;;;;;;;4.72;2.30;;;12.10;99.90;;;;;;5098650;27;20042;-74
2023/10/22 07:03:30;;;;;;;5.00;2.40;;;12.10;99.90;;;;;;5006808;28;20055;-73
2023/10/22 07:05:55;;;;;;;5.13;2.90;;;12.10;99.90;;;;;;5012249;28;20093;-73
2023/10/22 07:08:21;;;;;;;2.83;2.22;;;12.10;99.90;;;;;;5001463;28;20508;-72
2023/10/22 07:10:47;;;;;;;5.28;2.42;;;12.10;99.90;;;;;;4993178;28;20402;-77
2023/10/22 07:13:12;;;;;;;6.38;2.88;;;12.10;99.90;;;;;;4999814;28;20046;-78
2023/10/22 07:15:38;;;;;;;6.22;2.92;;;12.10;99.90;;;;;;4987894;28;20054;-75
2023/10/22 07:18:04;;;;;;;6.05;2.80;;;12.10;99.90;;;;;;4986964;28;20138;-76
2023/10/22 07:20:29;;;;;;;5.93;3.03;;;12.10;99.90;;;;;;4996198;28;20655;-78
2023/10/22 07:22:55;;;;;;;5.03;2.88;;;12.10;99.90;;;;;;5014312;28;20047;-75
2023/10/22 07:25:21;;;;;;;5.97;2.70;;;12.20;99.90;;;;;;5007218;28;20094;-75
2023/10/22 07:27:48;;;;;;;4.70;3.42;;;12.20;99.90;;;;;;4997608;28;20761;-77
2023/10/22 07:30:13;;;;;;;6.15;3.97;;;12.20;99.90;;;;;;5011588;28;20106;-76
2023/10/22 07:32:39;;;;;;;7.68;4.35;;;12.20;99.90;;;;;;5095042;27;20469;-73
2023/10/22 07:35:06;;;;;;;7.43;5.15;;;12.30;99.90;;;;;;4999033;28;20158;-74
2023/10/22 07:37:31;;;;;;;8.18;5.43;;;12.30;99.90;;;;;;5009624;28;20042;-76
2023/10/22 07:39:57;;;;;;;7.53;6.20;;;12.30;99.90;;;;;;4997192;28;20430;-75
2023/10/22 07:42:23;;;;;;;7.60;6.80;;;12.30;99.90;;;;;;5003249;28;20042;-75
2023/10/22 07:44:50;;;;;;;8.50;6.57;;;12.40;99.90;;;;;;5005866;28;20042;-76
2023/10/22 07:47:16;;;;;;;10.77;7.50;;;12.40;99.90;;;;;;5001142;28;20502;-75
2023/10/22 07:49:41;;;;;;;9.88;7.45;;;12.40;99.90;;;;;;5023693;28;20041;-74
2023/10/22 07:52:07;;;;;;;9.85;7.80;;;12.40;99.90;;;;;;4995946;28;20680;-75
2023/10/22 07:54:33;;;;;;;9.57;7.53;;;12.40;99.90;;;;;;5029935;28;20046;-75
2023/10/22 07:56:59;;;;;;;10.50;7.03;;;12.40;99.90;;;;;;5009368;28;20049;-74
2023/10/22 07:59:24;;;;;;;9.05;6.40;;;12.50;99.90;;;;;;5012355;28;20049;-72
2023/10/22 08:01:50;;;;;;;6.85;5.70;;;12.50;99.90;;;;;;5016173;28;20046;-73
2023/10/22 08:04:16;;;;;;;8.55;5.60;;;12.50;99.90;;;;;;5021759;28;20041;-73
2023/10/22 08:06:41;;;;;;;9.98;5.28;;;12.50;99.90;;;;;;5016905;28;20045;-72
2023/10/22 08:09:07;;;;;;;7.40;5.10;;;12.60;99.90;;;;;;5012245;28;20480;-73
2023/10/22 08:11:33;;;;;;;6.75;5.07;;;12.60;99.90;;;;;;5010605;28;20041;-73
2023/10/22 08:13:59;;;;;;;10.88;5.47;;;12.60;99.90;;;;;;5020574;28;20037;-72
2023/10/22 08:16:25;;;;;;;8.43;6.00;;;12.60;99.90;;;;;;5015261;28;20473;-73
2023/10/22 08:18:50;;;;;;;8.88;6.05;;;12.60;99.90;;;;;;5007773;28;20042;-73
2023/10/22 08:21:17;;;;;;;11.05;6.07;;;12.60;99.90;;;;;;5012011;28;20488;-73
2023/10/22 08:23:43;;;;;;;9.93;5.85;;;12.70;99.90;;;;;;5006109;28;20049;-73
2023/10/22 08:26:09;;;;;;;8.20;5.63;;;12.70;99.90;;;;;;5014033;28;20378;-73
2023/10/22 08:28:35;;;;;;;9.50;5.90;;;12.70;99.90;;;;;;5012928;28;20045;-73
2023/10/22 08:31:00;;;;;;;9.48;5.57;;;12.70;99.90;;;;;;5003867;28;20377;-73
2023/10/22 08:33:26;;;;;;;8.75;5.47;;;12.70;99.90;;;;;;5019923;28;20069;-72
2023/10/22 08:35:52;;;;;;;8.07;5.22;;;12.70;99.90;;;;;;5009387;28;20054;-73
2023/10/22 08:38:18;;;;;;;8.45;5.20;;;12.70;99.90;;;;;;5015163;28;20426;-72
2023/10/22 08:40:44;;;;;;;8.20;5.20;;;12.80;99.90;;;;;;5016878;28;20544;-73
2023/10/22 08:43:19;;;;;;;7.43;5.22;;;12.80;99.90;;;;;;5015761;28;20058;-73
2023/10/22 08:45:46;;;;;;;8.05;4.75;;;12.80;99.90;;;;;;5000502;28;20121;-73
2023/10/22 08:48:15;;;;;;;7.22;4.45;;;12.80;99.90;;;;;;5015007;28;20113;-73
2023/10/22 08:50:44;;;;;;;9.63;4.47;;;12.80;99.90;;;;;;5008728;28;20335;-73
2023/10/22 08:53:14;;;;;;;6.65;4.57;;;12.80;99.90;;;;;;5000296;28;20141;-74
2023/10/22 08:55:45;;;;;;;7.57;4.63;;;12.90;99.90;;;;;;5014895;28;20105;-73
2023/10/22 08:58:16;;;;;;;7.03;4.07;;;12.80;99.90;;;;;;5024019;28;20128;-73
2023/10/22 09:00:47;;;;;;;7.70;4.30;;;12.90;99.90;;;;;;5018080;28;20049;-73
2023/10/22 09:03:14;;;;;;;6.60;3.55;;;12.90;99.90;;;;;;5115640;27;20437;-73
2023/10/22 09:05:40;;;;;;;7.25;3.90;;;13.00;99.90;;;;;;5009018;28;20717;-73
2023/10/22 09:08:06;;;;;;;5.70;3.55;;;13.00;99.90;;;;;;5013113;28;20481;-74
2023/10/22 09:10:32;;;;;;;7.53;3.40;;;13.00;99.90;;;;;;5006462;28;20086;-74
2023/10/22 09:13:07;;;;;;;5.93;3.00;;;13.10;99.90;;;;;;5007892;28;20048;-86
2023/10/22 09:15:40;;;;;;;7.15;3.70;;;13.20;99.90;;;;;;5014504;28;20060;-73
2023/10/22 09:18:06;;;;;;;7.15;3.47;;;13.20;99.90;;;;;;5005831;28;20105;-73
2023/10/22 09:20:35;;;;;;;6.22;3.08;;;13.20;99.90;;;;;;5009776;28;20125;-73
2023/10/22 09:23:11;;;;;;;4.45;3.13;;;13.20;99.90;;;;;;4999459;28;20050;-74
2023/10/22 09:25:37;;;;;;;5.43;3.40;;;13.20;99.90;;;;;;4999182;28;20038;-73
2023/10/22 09:28:18;;;;;;;6.93;3.40;;;13.20;99.90;;;;;;4992158;28;20097;-75
2023/10/22 09:30:44;;;;;;;6.63;3.00;;;13.20;99.90;;;;;;5006497;28;20069;-74
2023/10/22 09:33:15;;;;;;;6.20;3.15;;;13.20;99.90;;;;;;4997588;28;20627;-75
2023/10/22 09:35:41;;;;;;;6.15;3.15;;;13.20;99.90;;;;;;4989754;28;20493;-74
2023/10/22 09:38:08;;;;;;;6.53;3.70;;;13.20;99.90;;;;;;4988104;28;20103;-74
2023/10/22 09:40:34;;;;;;;6.88;4.47;;;13.20;99.90;;;;;;4990142;28;20113;-74
2023/10/22 09:43:03;;;;;;;8.10;4.90;;;13.20;99.90;;;;;;5007484;28;20124;-76
2023/10/22 09:45:30;;;;;;;8.25;5.47;;;13.20;99.90;;;;;;5012838;28;20053;-78
2023/10/22 09:47:56;;;;;;;6.88;5.55;;;13.20;99.90;;;;;;4998663;28;20062;-76
2023/10/22 09:50:22;;;;;;;7.57;5.67;;;13.30;99.90;;;;;;5007411;28;20077;-77
2023/10/22 09:52:51;;;;;;;8.48;6.13;;;13.30;99.90;;;;;;4995263;28;20377;-76
2023/10/22 09:55:17;;;;;;;8.70;6.53;;;13.30;99.90;;;;;;4990969;28;20043;-76
2023/10/22 09:57:46;;;;;;;9.40;7.32;;;13.40;99.90;;;;;;4996621;28;20046;-75
2023/10/22 10:00:12;;;;;;;7.88;6.53;;;13.50;99.90;;;;;;4999744;28;20057;-75
2023/10/22 10:02:40;;;;;;;8.60;6.70;;;13.60;99.90;;;;;;5005013;28;20094;-76
2023/10/22 10:05:11;;;;;;;;;;;13.70;99.90;;;;;;5003496;28;20049;-74
2023/10/22 10:07:41;;;;;;;8.68;6.57;;;13.70;99.90;;;;;;5006140;28;20556;-76
2023/10/22 10:10:08;;;;;;;12.07;6.72;;;13.80;99.90;;;;;;4997618;28;20041;-75
2023/10/22 10:12:36;;;;;;;7.95;6.95;;;13.80;99.90;;;;;;4997025;28;20515;-78
2023/10/22 10:15:02;;;;;;;10.25;6.60;;;13.80;99.90;;;;;;4996023;28;20091;-76
2023/10/22 10:17:27;;;;;;;7.78;7.00;;;13.80;99.90;;;;;;5005448;28;20037;-80
2023/10/22 10:20:22;;;;;;;8.23;6.88;;;13.70;99.90;;;;;;4992900;28;20113;-79
2023/10/22 10:23:03;;;;;;;8.60;7.60;;;13.70;99.90;;;;;;5092731;27;20702;-73
2023/10/22 10:25:33;;;;;;;10.13;7.65;;;13.70;99.90;;;;;;4994399;28;20060;-72
2023/10/22 10:28:10;;;;;;;8.88;7.82;;;13.70;99.90;;;;;;5010243;28;20501;-72
2023/10/22 10:30:36;;;;;;;8.60;6.80;;;13.70;99.90;;;;;;4998442;28;20050;-71
2023/10/22 10:33:02;;;;;;;10.82;7.65;;;13.70;99.90;;;;;;4987246;28;20054;-71
2023/10/22 10:35:29;;;;;;;8.45;7.55;;;13.70;99.90;;;;;;5009599;28;20042;-72
2023/10/22 10:38:13;;;;;;;8.70;6.60;;;13.80;99.90;;;;;;5000983;28;20073;-71
2023/10/22 10:40:44;;;;;;;10.45;6.57;;;13.80;99.90;;;;;;5088667;28;20375;-73
2023/10/22 10:43:12;;;;;;;10.63;6.45;;;13.80;99.90;;;;;;4987518;28;20045;-72
2023/10/22 10:45:41;;;;;;;9.57;7.05;;;13.90;99.90;;;;;;4987123;28;20051;-72
2023/10/22 10:48:27;;;;;;;8.57;6.55;;;13.90;99.90;;;;;;4989921;28;20054;-73
2023/10/22 10:51:17;;;;;;;8.57;6.25;;;13.90;99.90;;;;;;4988532;28;20426;-72
2023/10/22 10:54:14;;;;;;;9.48;6.13;;;14.00;99.90;;;;;;5011014;28;20540;-73
2023/10/22 10:56:53;;;;;;;8.77;5.60;;;14.00;99.90;;;;;;4994257;28;20081;-73
2023/10/22 10:59:24;;;;;;;6.53;4.53;;;14.10;99.90;;;;;;4992291;28;20054;-72
2023/10/22 11:02:04;;;;;;;7.65;5.10;;;14.10;99.90;;;;;;4992764;28;20078;-72
2023/10/22 11:04:30;;;;;;;8.30;5.07;;;14.10;99.90;;;;;;5004952;28;20423;-72
2023/10/22 11:06:57;;;;;;;6.88;4.20;;;14.10;99.90;;;;;;4993533;28;20065;-73
2023/10/22 11:09:23;;;;;;;10.23;4.38;;;14.10;99.90;;;;;;5012045;28;20397;-73
2023/10/22 11:12:03;;;;;;;6.97;3.63;;;14.20;99.90;;;;;;5096877;27;20069;-74
2023/10/22 11:14:37;;;;;;;7.50;3.97;;;14.20;99.90;;;;;;5095081;27;20077;-74
2023/10/22 11:17:03;;;;;;;7.53;3.50;;;14.20;99.90;;;;;;4992517;28;20073;-74
2023/10/22 11:19:31;;;;;;;8.07;3.50;;;14.20;99.90;;;;;;5010220;28;20038;-74
2023/10/22 11:21:57;;;;;;;5.97;3.80;;;14.20;99.90;;;;;;4992062;28;20047;-74
2023/10/22 11:24:35;;;;;;;8.25;3.92;;;14.30;99.90;;;;;;4993617;28;20485;-74
2023/10/22 11:27:04;;;;;;;10.63;3.67;;;14.30;99.90;;;;;;5101194;27;20111;-74
2023/10/22 11:29:38;;;;;;;7.43;3.30;;;14.30;99.90;;;;;;5003625;28;20054;-74
2023/10/22 11:32:04;;;;;;;6.53;3.28;;;14.30;99.90;;;;;;4998519;28;20125;-74
2023/10/22 11:34:29;;;;;;;6.45;3.72;;;14.30;99.90;;;;;;4991364;28;20159;-74
2023/10/22 11:36:59;;;;;;;7.65;3.42;;;14.30;99.90;;;;;;4993818;28;20101;-74
2023/10/22 11:39:33;;;;;;;5.88;3.28;;;14.40;99.90;;;;;;4992583;28;20062;-74
2023/10/22 11:41:59;;;;;;;5.28;3.05;;;14.40;99.90;;;;;;4992644;28;20077;-74
2023/10/22 11:44:33;;;;;;;5.53;2.55;;;14.40;99.90;;;;;;5021099;28;20038;-74
2023/10/22 11:47:20;;;;;;;9.77;3.35;;;14.40;99.90;;;;;;5018535;28;20102;-74
2023/10/22 11:49:46;;;;;;;4.53;2.33;;;14.30;99.90;;;;;;5081072;27;20050;-74
2023/10/22 11:52:34;;;;;;;5.07;2.00;;;14.40;99.90;;;;;;4992354;28;20046;-74
2023/10/22 11:55:09;;;;;;;6.50;2.10;;;14.30;99.90;;;;;;4996364;28;20054;-74
2023/10/22 11:57:41;;;;;;;4.40;1.65;;;14.40;99.90;;;;;;4999758;28;20206;-74
2023/10/22 12:00:10;;;;;;;5.72;1.77;;;14.40;99.90;;;;;;4994734;28;20046;-74
2023/10/22 12:02:36;;;;;;;8.02;2.00;;;14.40;99.90;;;;;;4999815;28;20057;-74
2023/10/22 12:05:02;;;;;;;4.07;1.70;;;14.30;99.90;;;;;;5003185;28;20046;-74
2023/10/22 12:07:28;;;;;;;3.72;1.65;;;14.30;99.90;;;;;;4989988;28;20502;-74
2023/10/22 12:09:54;;;;;;;3.75;1.58;;;14.30;99.90;;;;;;5001859;28;20046;-74
2023/10/22 12:12:20;;;;;;;3.40;1.75;;;14.20;99.90;;;;;;4994533;28;20065;-74
2023/10/22 12:14:47;;;;;;;5.15;1.40;;;14.10;99.90;;;;;;4990556;28;20241;-74
2023/10/22 12:17:12;;;;;;;4.47;1.40;;;14.10;99.90;;;;;;4995970;28;20054;-74
2023/10/22 12:19:39;;;;;;;3.75;1.70;;;14.00;99.90;;;;;;5019675;28;20052;-74
2023/10/22 12:22:05;;;;;;;4.43;1.77;;;13.90;99.90;;;;;;4990042;28;20056;-74
2023/10/22 12:24:31;;;;;;;3.15;1.75;;;13.90;99.90;;;;;;4987552;28;20054;-74
2023/10/22 12:26:57;;;;;;;3.17;1.70;;;13.80;99.90;;;;;;5005023;28;20057;-74
2023/10/22 12:29:23;;;;;;;5.22;2.03;;;13.70;99.90;;;;;;5004851;28;20052;-74
2023/10/22 12:31:48;;;;;;;4.30;1.30;;;13.70;99.90;;;;;;4990609;28;20050;-74
2023/10/22 12:34:14;;;;;;;2.85;1.23;;;13.60;99.90;;;;;;5010061;28;20042;-74
2023/10/22 12:36:40;;;;;;;3.75;1.10;;;13.60;99.90;;;;;;4999792;28;20535;-74
2023/10/22 12:39:07;;;;;;;1.42;0.70;;;13.50;99.90;;;;;;5005827;28;20038;-74
2023/10/22 12:41:36;;;;;;;2.78;0.80;;;13.40;99.90;;;;;;4989289;28;20050;-74
2023/10/22 12:44:05;;;;;;;1.65;0.80;;;13.30;99.90;;;;;;5090229;28;20049;-74
2023/10/22 12:46:32;;;;;;;3.05;0.98;;;13.30;99.90;;;;;;4987994;28;20045;-74
2023/10/22 12:48:59;;;;;;;2.40;0.93;;;13.30;99.90;;;;;;4992506;28;20137;-74